sensor_id;sensor_type;location;lat;lon;timestamp;P1;durP1;ratioP1;P2;durP2;ratioP2
56911;SDS011;42800;53.928;27.662;2023-05-13T00:00:14;14.50;;;5.97;;
56911;SDS011;42800;53.928;27.662;2023-05-13T00:02:41;19.08;;;5.70;;
56911;SDS011;42800;53.928;27.662;2023-05-13T00:05:07;11.80;;;6.00;;
56911;SDS011;42800;53.928;27.662;2023-05-13T00:07:34;12.00;;;5.45;;
56911;SDS011;42800;53.928;27.662;2023-05-13T00:10:00;10.98;;;6.13;;
56911;SDS011;42800;53.928;27.662;2023-05-13T00:12:26;15.90;;;6.55;;
56911;SDS011;42800;53.928;27.662;2023-05-13T00:14:52;14.75;;;6.28;;
56911;SDS011;42800;53.928;27.662;2023-05-13T00:17:18;17.63;;;5.88;;
56911;SDS011;42800;53.928;27.662;2023-05-13T00:19:44;13.85;;;5.97;;
56911;SDS011;42800;53.928;27.662;2023-05-13T00:22:10;19.33;;;5.88;;
56911;SDS011;42800;53.928;27.662;2023-05-13T00:24:36;13.38;;;5.97;;
56911;SDS011;42800;53.928;27.662;2023-05-13T00:27:02;10.63;;;5.65;;
56911;SDS011;42800;53.928;27.662;2023-05-13T00:29:29;13.60;;;5.50;;
56911;SDS011;42800;53.928;27.662;2023-05-13T00:31:55;12.23;;;5.68;;
56911;SDS011;42800;53.928;27.662;2023-05-13T00:34:21;15.63;;;6.55;;
56911;SDS011;42800;53.928;27.662;2023-05-13T00:36:48;10.93;;;6.50;;
56911;SDS011;42800;53.928;27.662;2023-05-13T00:39:14;9.52;;;5.72;;
56911;SDS011;42800;53.928;27.662;2023-05-13T00:41:40;11.18;;;6.50;;
56911;SDS011;42800;53.928;27.662;2023-05-13T00:44:06;21.90;;;5.90;;
56911;SDS011;42800;53.928;27.662;2023-05-13T00:46:32;19.48;;;5.97;;
56911;SDS011;42800;53.928;27.662;2023-05-13T00:48:58;15.73;;;5.70;;
56911;SDS011;42800;53.928;27.662;2023-05-13T00:51:25;12.70;;;5.63;;
56911;SDS011;42800;53.928;27.662;2023-05-13T00:53:51;13.98;;;6.03;;
56911;SDS011;42800;53.928;27.662;2023-05-13T00:56:18;11.18;;;6.50;;
56911;SDS011;42800;53.928;27.662;2023-05-13T00:58:44;14.52;;;6.10;;
56911;SDS011;42800;53.928;27.662;2023-05-13T01:01:12;16.75;;;6.43;;
56911;SDS011;42800;53.928;27.662;2023-05-13T01:04:03;7.95;;;5.85;;
56911;SDS011;42800;53.928;27.662;2023-05-13T01:06:39;11.20;;;6.25;;
56911;SDS011;42800;53.928;27.662;2023-05-13T01:09:14;17.98;;;6.53;;
56911;SDS011;42800;53.928;27.662;2023-05-13T01:11:52;13.43;;;6.32;;
56911;SDS011;42800;53.928;27.662;2023-05-13T01:14:21;10.98;;;6.28;;
56911;SDS011;42800;53.928;27.662;2023-05-13T01:16:51;12.13;;;6.05;;
56911;SDS011;42800;53.928;27.662;2023-05-13T01:19:25;13.65;;;6.30;;
56911;SDS011;42800;53.928;27.662;2023-05-13T01:22:04;10.50;;;5.88;;
56911;SDS011;42800;53.928;27.662;2023-05-13T01:24:31;13.15;;;6.43;;
56911;SDS011;42800;53.928;27.662;2023-05-13T01:26:57;10.27;;;5.82;;
56911;SDS011;42800;53.928;27.662;2023-05-13T01:29:23;21.23;;;6.63;;
56911;SDS011;42800;53.928;27.662;2023-05-13T01:31:50;12.85;;;6.25;;
56911;SDS011;42800;53.928;27.662;2023-05-13T01:34:18;11.27;;;6.07;;
56911;SDS011;42800;53.928;27.662;2023-05-13T01:36:46;14.63;;;6.45;;
56911;SDS011;42800;53.928;27.662;2023-05-13T01:39:13;10.55;;;6.30;;
56911;SDS011;42800;53.928;27.662;2023-05-13T01:41:41;13.45;;;6.30;;
56911;SDS011;42800;53.928;27.662;2023-05-13T01:44:08;14.88;;;6.95;;
56911;SDS011;42800;53.928;27.662;2023-05-13T01:46:35;12.93;;;7.22;;
56911;SDS011;42800;53.928;27.662;2023-05-13T01:49:02;16.75;;;6.47;;
56911;SDS011;42800;53.928;27.662;2023-05-13T01:51:28;15.73;;;7.10;;
56911;SDS011;42800;53.928;27.662;2023-05-13T01:53:54;11.15;;;6.15;;
56911;SDS011;42800;53.928;27.662;2023-05-13T01:56:20;11.80;;;6.38;;
56911;SDS011;42800;53.928;27.662;2023-05-13T01:58:46;16.80;;;5.97;;
56911;SDS011;42800;53.928;27.662;2023-05-13T02:01:12;11.73;;;6.60;;
56911;SDS011;42800;53.928;27.662;2023-05-13T02:03:38;13.52;;;6.47;;
56911;SDS011;42800;53.928;27.662;2023-05-13T02:06:04;11.98;;;6.35;;
56911;SDS011;42800;53.928;27.662;2023-05-13T02:08:30;22.83;;;7.35;;
56911;SDS011;42800;53.928;27.662;2023-05-13T02:10:56;16.17;;;6.47;;
56911;SDS011;42800;53.928;27.662;2023-05-13T02:13:24;16.88;;;6.82;;
56911;SDS011;42800;53.928;27.662;2023-05-13T02:15:50;19.27;;;7.13;;
56911;SDS011;42800;53.928;27.662;2023-05-13T02:18:16;16.20;;;6.45;;
56911;SDS011;42800;53.928;27.662;2023-05-13T02:20:42;15.68;;;6.40;;
56911;SDS011;42800;53.928;27.662;2023-05-13T02:23:08;15.52;;;7.25;;
56911;SDS011;42800;53.928;27.662;2023-05-13T02:25:34;17.00;;;7.10;;
56911;SDS011;42800;53.928;27.662;2023-05-13T02:28:00;14.45;;;5.95;;
56911;SDS011;42800;53.928;27.662;2023-05-13T02:30:27;12.07;;;6.50;;
56911;SDS011;42800;53.928;27.662;2023-05-13T02:32:53;20.48;;;7.18;;
56911;SDS011;42800;53.928;27.662;2023-05-13T02:35:20;21.05;;;6.70;;
56911;SDS011;42800;53.928;27.662;2023-05-13T02:37:46;21.77;;;7.32;;
56911;SDS011;42800;53.928;27.662;2023-05-13T02:40:13;15.43;;;7.25;;
56911;SDS011;42800;53.928;27.662;2023-05-13T02:42:38;12.68;;;7.20;;
56911;SDS011;42800;53.928;27.662;2023-05-13T02:45:05;19.35;;;8.32;;
56911;SDS011;42800;53.928;27.662;2023-05-13T02:47:32;16.95;;;7.00;;
56911;SDS011;42800;53.928;27.662;2023-05-13T02:49:58;17.88;;;7.60;;
56911;SDS011;42800;53.928;27.662;2023-05-13T02:52:24;10.57;;;6.95;;
56911;SDS011;42800;53.928;27.662;2023-05-13T02:54:50;17.23;;;7.25;;
56911;SDS011;42800;53.928;27.662;2023-05-13T02:57:16;13.85;;;7.68;;
56911;SDS011;42800;53.928;27.662;2023-05-13T02:59:42;16.77;;;7.13;;
56911;SDS011;42800;53.928;27.662;2023-05-13T03:02:08;12.82;;;6.63;;
56911;SDS011;42800;53.928;27.662;2023-05-13T03:04:34;20.77;;;7.43;;
56911;SDS011;42800;53.928;27.662;2023-05-13T03:07:00;29.60;;;6.78;;
56911;SDS011;42800;53.928;27.662;2023-05-13T03:09:26;13.20;;;6.95;;
56911;SDS011;42800;53.928;27.662;2023-05-13T03:11:52;11.10;;;6.72;;
56911;SDS011;42800;53.928;27.662;2023-05-13T03:14:18;13.27;;;6.63;;
56911;SDS011;42800;53.928;27.662;2023-05-13T03:16:44;13.95;;;8.60;;
56911;SDS011;42800;53.928;27.662;2023-05-13T03:19:10;12.77;;;7.13;;
56911;SDS011;42800;53.928;27.662;2023-05-13T03:21:36;13.30;;;6.40;;
56911;SDS011;42800;53.928;27.662;2023-05-13T03:24:03;11.40;;;6.78;;
56911;SDS011;42800;53.928;27.662;2023-05-13T03:26:29;10.80;;;6.40;;
56911;SDS011;42800;53.928;27.662;2023-05-13T03:28:55;15.55;;;8.90;;
56911;SDS011;42800;53.928;27.662;2023-05-13T03:31:21;19.20;;;6.80;;
56911;SDS011;42800;53.928;27.662;2023-05-13T03:33:47;11.60;;;6.18;;
56911;SDS011;42800;53.928;27.662;2023-05-13T03:36:13;15.05;;;7.00;;
56911;SDS011;42800;53.928;27.662;2023-05-13T03:38:39;18.52;;;6.65;;
56911;SDS011;42800;53.928;27.662;2023-05-13T03:41:05;13.18;;;6.53;;
56911;SDS011;42800;53.928;27.662;2023-05-13T03:43:31;13.85;;;6.75;;
56911;SDS011;42800;53.928;27.662;2023-05-13T03:45:57;20.67;;;8.00;;
56911;SDS011;42800;53.928;27.662;2023-05-13T03:48:23;15.05;;;6.43;;
56911;SDS011;42800;53.928;27.662;2023-05-13T03:50:49;9.10;;;6.47;;
56911;SDS011;42800;53.928;27.662;2023-05-13T03:53:17;11.15;;;6.28;;
56911;SDS011;42800;53.928;27.662;2023-05-13T03:55:43;9.50;;;6.43;;
56911;SDS011;42800;53.928;27.662;2023-05-13T04:04:56;13.15;;;6.38;;
56911;SDS011;42800;53.928;27.662;2023-05-13T04:07:22;13.50;;;6.50;;
56911;SDS011;42800;53.928;27.662;2023-05-13T04:09:48;7.78;;;5.60;;
56911;SDS011;42800;53.928;27.662;2023-05-13T04:12:15;13.38;;;5.88;;
56911;SDS011;42800;53.928;27.662;2023-05-13T04:14:42;8.75;;;5.93;;
56911;SDS011;42800;53.928;27.662;2023-05-13T04:17:08;9.65;;;5.60;;
56911;SDS011;42800;53.928;27.662;2023-05-13T04:19:34;8.82;;;5.38;;
56911;SDS011;42800;53.928;27.662;2023-05-13T04:21:59;6.80;;;5.15;;
56911;SDS011;42800;53.928;27.662;2023-05-13T04:24:25;8.00;;;5.72;;
56911;SDS011;42800;53.928;27.662;2023-05-13T04:26:51;6.05;;;5.00;;
56911;SDS011;42800;53.928;27.662;2023-05-13T04:29:18;12.10;;;4.95;;
56911;SDS011;42800;53.928;27.662;2023-05-13T04:31:44;5.95;;;4.65;;
56911;SDS011;42800;53.928;27.662;2023-05-13T04:34:10;5.80;;;5.20;;
56911;SDS011;42800;53.928;27.662;2023-05-13T04:36:36;12.48;;;5.00;;
56911;SDS011;42800;53.928;27.662;2023-05-13T04:39:02;10.55;;;4.82;;
56911;SDS011;42800;53.928;27.662;2023-05-13T04:41:28;11.05;;;5.10;;
56911;SDS011;42800;53.928;27.662;2023-05-13T04:43:54;15.85;;;4.65;;
56911;SDS011;42800;53.928;27.662;2023-05-13T04:46:20;7.38;;;5.25;;
56911;SDS011;42800;53.928;27.662;2023-05-13T04:48:46;7.47;;;4.78;;
56911;SDS011;42800;53.928;27.662;2023-05-13T04:51:12;14.65;;;5.70;;
56911;SDS011;42800;53.928;27.662;2023-05-13T04:53:38;12.93;;;6.20;;
56911;SDS011;42800;53.928;27.662;2023-05-13T04:56:05;10.88;;;5.43;;
56911;SDS011;42800;53.928;27.662;2023-05-13T04:58:31;11.02;;;5.03;;
56911;SDS011;42800;53.928;27.662;2023-05-13T05:00:58;12.63;;;5.88;;
56911;SDS011;42800;53.928;27.662;2023-05-13T05:03:24;13.32;;;5.75;;
56911;SDS011;42800;53.928;27.662;2023-05-13T05:05:50;9.77;;;5.57;;
56911;SDS011;42800;53.928;27.662;2023-05-13T05:08:16;9.13;;;5.50;;
56911;SDS011;42800;53.928;27.662;2023-05-13T05:10:42;11.45;;;5.60;;
56911;SDS011;42800;53.928;27.662;2023-05-13T05:13:08;12.63;;;5.18;;
56911;SDS011;42800;53.928;27.662;2023-05-13T05:15:34;9.73;;;5.32;;
56911;SDS011;42800;53.928;27.662;2023-05-13T05:18:00;17.08;;;5.22;;
56911;SDS011;42800;53.928;27.662;2023-05-13T05:20:27;14.43;;;5.13;;
56911;SDS011;42800;53.928;27.662;2023-05-13T05:22:53;14.43;;;5.55;;
56911;SDS011;42800;53.928;27.662;2023-05-13T05:25:19;12.90;;;5.13;;
56911;SDS011;42800;53.928;27.662;2023-05-13T05:27:45;11.93;;;5.15;;
56911;SDS011;42800;53.928;27.662;2023-05-13T05:30:11;11.80;;;4.93;;
56911;SDS011;42800;53.928;27.662;2023-05-13T05:32:38;14.85;;;5.57;;
56911;SDS011;42800;53.928;27.662;2023-05-13T05:35:04;13.60;;;5.05;;
56911;SDS011;42800;53.928;27.662;2023-05-13T05:37:32;16.38;;;4.72;;
56911;SDS011;42800;53.928;27.662;2023-05-13T05:39:58;11.48;;;4.65;;
56911;SDS011;42800;53.928;27.662;2023-05-13T05:42:24;9.77;;;4.75;;
56911;SDS011;42800;53.928;27.662;2023-05-13T05:44:50;14.02;;;4.70;;
56911;SDS011;42800;53.928;27.662;2023-05-13T05:47:16;7.53;;;4.28;;
56911;SDS011;42800;53.928;27.662;2023-05-13T05:49:42;4.53;;;3.85;;
56911;SDS011;42800;53.928;27.662;2023-05-13T05:52:08;9.18;;;4.65;;
56911;SDS011;42800;53.928;27.662;2023-05-13T05:54:35;11.07;;;4.45;;
56911;SDS011;42800;53.928;27.662;2023-05-13T05:57:01;7.43;;;4.97;;
56911;SDS011;42800;53.928;27.662;2023-05-13T05:59:27;11.95;;;4.82;;
56911;SDS011;42800;53.928;27.662;2023-05-13T06:01:53;9.30;;;4.05;;
56911;SDS011;42800;53.928;27.662;2023-05-13T06:04:19;9.05;;;4.47;;
56911;SDS011;42800;53.928;27.662;2023-05-13T06:06:45;11.07;;;4.40;;
56911;SDS011;42800;53.928;27.662;2023-05-13T06:09:11;13.10;;;4.22;;
56911;SDS011;42800;53.928;27.662;2023-05-13T06:11:40;12.95;;;4.43;;
56911;SDS011;42800;53.928;27.662;2023-05-13T06:14:08;11.30;;;4.20;;
56911;SDS011;42800;53.928;27.662;2023-05-13T06:16:35;10.57;;;4.10;;
56911;SDS011;42800;53.928;27.662;2023-05-13T06:19:01;7.45;;;4.18;;
56911;SDS011;42800;53.928;27.662;2023-05-13T06:21:27;15.38;;;4.97;;
56911;SDS011;42800;53.928;27.662;2023-05-13T06:23:56;9.65;;;4.13;;
56911;SDS011;42800;53.928;27.662;2023-05-13T06:26:22;11.73;;;4.10;;
56911;SDS011;42800;53.928;27.662;2023-05-13T06:28:51;12.30;;;4.57;;
56911;SDS011;42800;53.928;27.662;2023-05-13T06:31:19;12.35;;;4.30;;
56911;SDS011;42800;53.928;27.662;2023-05-13T06:33:45;11.38;;;4.53;;
56911;SDS011;42800;53.928;27.662;2023-05-13T06:36:11;8.95;;;3.95;;
56911;SDS011;42800;53.928;27.662;2023-05-13T06:38:38;8.32;;;4.03;;
56911;SDS011;42800;53.928;27.662;2023-05-13T06:41:05;10.63;;;3.83;;
56911;SDS011;42800;53.928;27.662;2023-05-13T06:43:39;13.07;;;3.65;;
56911;SDS011;42800;53.928;27.662;2023-05-13T06:46:06;5.93;;;3.72;;
56911;SDS011;42800;53.928;27.662;2023-05-13T06:48:31;10.80;;;4.20;;
56911;SDS011;42800;53.928;27.662;2023-05-13T06:50:57;9.82;;;4.00;;
56911;SDS011;42800;53.928;27.662;2023-05-13T06:53:23;9.35;;;4.13;;
56911;SDS011;42800;53.928;27.662;2023-05-13T06:55:49;9.02;;;3.92;;
56911;SDS011;42800;53.928;27.662;2023-05-13T06:58:15;9.40;;;3.75;;
56911;SDS011;42800;53.928;27.662;2023-05-13T07:00:41;10.98;;;3.45;;
56911;SDS011;42800;53.928;27.662;2023-05-13T07:03:08;11.35;;;3.42;;
56911;SDS011;42800;53.928;27.662;2023-05-13T07:05:34;8.25;;;3.20;;
56911;SDS011;42800;53.928;27.662;2023-05-13T07:08:00;6.88;;;3.50;;
56911;SDS011;42800;53.928;27.662;2023-05-13T07:10:30;16.80;;;3.92;;
56911;SDS011;42800;53.928;27.662;2023-05-13T07:12:56;5.30;;;3.22;;
56911;SDS011;42800;53.928;27.662;2023-05-13T07:15:22;12.05;;;3.75;;
56911;SDS011;42800;53.928;27.662;2023-05-13T07:17:48;6.47;;;3.30;;
56911;SDS011;42800;53.928;27.662;2023-05-13T07:20:15;8.13;;;3.20;;
56911;SDS011;42800;53.928;27.662;2023-05-13T07:22:45;6.10;;;2.92;;
56911;SDS011;42800;53.928;27.662;2023-05-13T07:25:11;6.63;;;3.53;;
56911;SDS011;42800;53.928;27.662;2023-05-13T07:27:37;11.50;;;3.45;;
56911;SDS011;42800;53.928;27.662;2023-05-13T07:30:04;8.30;;;2.88;;
56911;SDS011;42800;53.928;27.662;2023-05-13T07:32:31;6.60;;;3.20;;
56911;SDS011;42800;53.928;27.662;2023-05-13T07:34:59;6.40;;;2.90;;
56911;SDS011;42800;53.928;27.662;2023-05-13T07:37:25;7.13;;;3.05;;
56911;SDS011;42800;53.928;27.662;2023-05-13T07:39:51;8.77;;;2.92;;
56911;SDS011;42800;53.928;27.662;2023-05-13T07:42:17;8.18;;;3.13;;
56911;SDS011;42800;53.928;27.662;2023-05-13T07:44:43;11.73;;;3.35;;
56911;SDS011;42800;53.928;27.662;2023-05-13T07:47:09;9.80;;;3.70;;
56911;SDS011;42800;53.928;27.662;2023-05-13T07:49:36;10.85;;;2.78;;
56911;SDS011;42800;53.928;27.662;2023-05-13T07:52:02;8.48;;;2.85;;
56911;SDS011;42800;53.928;27.662;2023-05-13T07:54:29;6.10;;;2.33;;
56911;SDS011;42800;53.928;27.662;2023-05-13T07:56:55;7.03;;;3.00;;
56911;SDS011;42800;53.928;27.662;2023-05-13T07:59:21;9.00;;;3.15;;
56911;SDS011;42800;53.928;27.662;2023-05-13T08:01:47;7.38;;;2.75;;
56911;SDS011;42800;53.928;27.662;2023-05-13T08:04:13;10.23;;;3.05;;
56911;SDS011;42800;53.928;27.662;2023-05-13T08:06:38;6.38;;;2.75;;
56911;SDS011;42800;53.928;27.662;2023-05-13T08:09:04;8.65;;;2.85;;
56911;SDS011;42800;53.928;27.662;2023-05-13T08:11:31;6.22;;;2.70;;
56911;SDS011;42800;53.928;27.662;2023-05-13T08:13:57;7.55;;;2.83;;
56911;SDS011;42800;53.928;27.662;2023-05-13T08:16:23;5.25;;;3.00;;
56911;SDS011;42800;53.928;27.662;2023-05-13T08:18:49;5.00;;;2.88;;
56911;SDS011;42800;53.928;27.662;2023-05-13T08:21:14;11.85;;;2.70;;
56911;SDS011;42800;53.928;27.662;2023-05-13T08:23:40;6.38;;;2.33;;
56911;SDS011;42800;53.928;27.662;2023-05-13T08:26:06;6.28;;;2.42;;
56911;SDS011;42800;53.928;27.662;2023-05-13T08:28:33;8.50;;;2.80;;
56911;SDS011;42800;53.928;27.662;2023-05-13T08:30:59;5.85;;;2.78;;
56911;SDS011;42800;53.928;27.662;2023-05-13T08:33:26;11.15;;;3.65;;
56911;SDS011;42800;53.928;27.662;2023-05-13T08:35:53;7.50;;;2.60;;
56911;SDS011;42800;53.928;27.662;2023-05-13T08:38:19;5.85;;;2.40;;
56911;SDS011;42800;53.928;27.662;2023-05-13T08:40:45;3.08;;;2.35;;
56911;SDS011;42800;53.928;27.662;2023-05-13T08:43:11;8.40;;;3.35;;
56911;SDS011;42800;53.928;27.662;2023-05-13T08:45:40;9.00;;;3.05;;
56911;SDS011;42800;53.928;27.662;2023-05-13T08:48:09;5.00;;;2.42;;
56911;SDS011;42800;53.928;27.662;2023-05-13T08:50:39;13.00;;;2.72;;
56911;SDS011;42800;53.928;27.662;2023-05-13T08:53:05;10.25;;;2.40;;
56911;SDS011;42800;53.928;27.662;2023-05-13T08:55:32;2.97;;;2.63;;
56911;SDS011;42800;53.928;27.662;2023-05-13T08:57:58;5.55;;;2.60;;
56911;SDS011;42800;53.928;27.662;2023-05-13T09:00:24;9.93;;;3.03;;
56911;SDS011;42800;53.928;27.662;2023-05-13T09:02:51;5.72;;;2.97;;
56911;SDS011;42800;53.928;27.662;2023-05-13T09:05:17;4.53;;;2.40;;
56911;SDS011;42800;53.928;27.662;2023-05-13T09:07:44;7.25;;;3.67;;
56911;SDS011;42800;53.928;27.662;2023-05-13T09:10:10;5.88;;;3.17;;
56911;SDS011;42800;53.928;27.662;2023-05-13T09:12:46;6.15;;;2.78;;
56911;SDS011;42800;53.928;27.662;2023-05-13T09:15:13;6.22;;;3.05;;
56911;SDS011;42800;53.928;27.662;2023-05-13T09:17:41;11.02;;;3.35;;
56911;SDS011;42800;53.928;27.662;2023-05-13T09:20:09;7.82;;;3.03;;
56911;SDS011;42800;53.928;27.662;2023-05-13T09:22:40;5.07;;;3.10;;
56911;SDS011;42800;53.928;27.662;2023-05-13T09:25:10;4.85;;;2.88;;
56911;SDS011;42800;53.928;27.662;2023-05-13T09:27:37;13.63;;;3.20;;
56911;SDS011;42800;53.928;27.662;2023-05-13T09:30:05;6.53;;;3.05;;
56911;SDS011;42800;53.928;27.662;2023-05-13T09:32:32;6.40;;;2.80;;
56911;SDS011;42800;53.928;27.662;2023-05-13T09:35:06;7.55;;;2.97;;
56911;SDS011;42800;53.928;27.662;2023-05-13T09:37:34;8.18;;;2.88;;
56911;SDS011;42800;53.928;27.662;2023-05-13T09:40:00;10.27;;;3.38;;
56911;SDS011;42800;53.928;27.662;2023-05-13T09:42:27;7.15;;;3.42;;
56911;SDS011;42800;53.928;27.662;2023-05-13T09:44:53;6.28;;;3.20;;
56911;SDS011;42800;53.928;27.662;2023-05-13T09:47:20;6.13;;;2.90;;
56911;SDS011;42800;53.928;27.662;2023-05-13T09:49:53;5.43;;;2.92;;
56911;SDS011;42800;53.928;27.662;2023-05-13T09:52:20;8.52;;;2.90;;
56911;SDS011;42800;53.928;27.662;2023-05-13T09:54:47;6.22;;;2.97;;
56911;SDS011;42800;53.928;27.662;2023-05-13T09:57:13;9.57;;;2.88;;
56911;SDS011;42800;53.928;27.662;2023-05-13T09:59:39;7.10;;;3.03;;
56911;SDS011;42800;53.928;27.662;2023-05-13T10:02:06;9.43;;;3.03;;
56911;SDS011;42800;53.928;27.662;2023-05-13T10:04:32;8.70;;;3.10;;
56911;SDS011;42800;53.928;27.662;2023-05-13T10:07:00;4.70;;;2.80;;
56911;SDS011;42800;53.928;27.662;2023-05-13T10:09:28;5.00;;;3.15;;
56911;SDS011;42800;53.928;27.662;2023-05-13T10:11:58;4.72;;;3.00;;
56911;SDS011;42800;53.928;27.662;2023-05-13T10:14:26;7.90;;;2.90;;
56911;SDS011;42800;53.928;27.662;2023-05-13T10:16:52;5.72;;;2.95;;
56911;SDS011;42800;53.928;27.662;2023-05-13T10:19:21;4.20;;;2.70;;
56911;SDS011;42800;53.928;27.662;2023-05-13T10:21:48;5.22;;;2.80;;
56911;SDS011;42800;53.928;27.662;2023-05-13T10:24:15;7.03;;;2.88;;
56911;SDS011;42800;53.928;27.662;2023-05-13T10:26:42;7.03;;;3.35;;
56911;SDS011;42800;53.928;27.662;2023-05-13T10:29:10;5.70;;;3.17;;
56911;SDS011;42800;53.928;27.662;2023-05-13T10:31:37;5.57;;;3.22;;
56911;SDS011;42800;53.928;27.662;2023-05-13T10:34:03;7.25;;;2.70;;
56911;SDS011;42800;53.928;27.662;2023-05-13T10:36:50;5.65;;;2.78;;
56911;SDS011;42800;53.928;27.662;2023-05-13T10:39:33;5.05;;;2.80;;
56911;SDS011;42800;53.928;27.662;2023-05-13T10:42:24;9.25;;;3.38;;
56911;SDS011;42800;53.928;27.662;2023-05-13T10:45:10;10.40;;;3.63;;
56911;SDS011;42800;53.928;27.662;2023-05-13T10:47:36;8.98;;;3.47;;
56911;SDS011;42800;53.928;27.662;2023-05-13T10:50:06;5.32;;;2.90;;
56911;SDS011;42800;53.928;27.662;2023-05-13T10:52:47;6.25;;;2.90;;
56911;SDS011;42800;53.928;27.662;2023-05-13T10:55:14;6.95;;;3.33;;
56911;SDS011;42800;53.928;27.662;2023-05-13T10:57:41;7.57;;;3.08;;
56911;SDS011;42800;53.928;27.662;2023-05-13T11:00:30;5.47;;;3.17;;
56911;SDS011;42800;53.928;27.662;2023-05-13T11:02:56;5.15;;;3.10;;
56911;SDS011;42800;53.928;27.662;2023-05-13T11:05:32;6.10;;;3.40;;
56911;SDS011;42800;53.928;27.662;2023-05-13T11:07:58;4.93;;;3.10;;
56911;SDS011;42800;53.928;27.662;2023-05-13T11:10:24;6.70;;;3.00;;
56911;SDS011;42800;53.928;27.662;2023-05-13T11:13:06;8.82;;;3.05;;
56911;SDS011;42800;53.928;27.662;2023-05-13T11:15:42;12.73;;;3.40;;
56911;SDS011;42800;53.928;27.662;2023-05-13T11:18:10;9.13;;;3.33;;
56911;SDS011;42800;53.928;27.662;2023-05-13T11:20:36;6.00;;;3.33;;
56911;SDS011;42800;53.928;27.662;2023-05-13T11:23:02;6.65;;;3.00;;
56911;SDS011;42800;53.928;27.662;2023-05-13T11:25:28;8.90;;;3.28;;
56911;SDS011;42800;53.928;27.662;2023-05-13T11:27:54;8.95;;;3.60;;
56911;SDS011;42800;53.928;27.662;2023-05-13T11:30:21;8.05;;;3.30;;
56911;SDS011;42800;53.928;27.662;2023-05-13T11:32:52;8.05;;;3.13;;
56911;SDS011;42800;53.928;27.662;2023-05-13T11:35:20;4.93;;;2.40;;
56911;SDS011;42800;53.928;27.662;2023-05-13T11:37:47;6.30;;;3.28;;
56911;SDS011;42800;53.928;27.662;2023-05-13T11:40:20;6.47;;;2.70;;
56911;SDS011;42800;53.928;27.662;2023-05-13T11:42:46;6.78;;;2.53;;
56911;SDS011;42800;53.928;27.662;2023-05-13T11:45:12;4.53;;;2.60;;
56911;SDS011;42800;53.928;27.662;2023-05-13T11:47:38;7.10;;;2.90;;
56911;SDS011;42800;53.928;27.662;2023-05-13T11:50:16;9.10;;;3.92;;
56911;SDS011;42800;53.928;27.662;2023-05-13T11:52:42;10.73;;;3.00;;
56911;SDS011;42800;53.928;27.662;2023-05-13T11:55:08;6.93;;;3.35;;
56911;SDS011;42800;53.928;27.662;2023-05-13T11:57:34;10.30;;;3.13;;
56911;SDS011;42800;53.928;27.662;2023-05-13T12:00:01;7.20;;;3.67;;
56911;SDS011;42800;53.928;27.662;2023-05-13T12:02:29;4.10;;;2.33;;
56911;SDS011;42800;53.928;27.662;2023-05-13T12:04:58;4.30;;;2.65;;
56911;SDS011;42800;53.928;27.662;2023-05-13T12:07:25;8.98;;;3.20;;
56911;SDS011;42800;53.928;27.662;2023-05-13T12:09:54;9.10;;;3.40;;
56911;SDS011;42800;53.928;27.662;2023-05-13T12:12:21;8.45;;;2.83;;
56911;SDS011;42800;53.928;27.662;2023-05-13T12:14:47;14.90;;;2.58;;
56911;SDS011;42800;53.928;27.662;2023-05-13T12:17:14;6.18;;;3.20;;
56911;SDS011;42800;53.928;27.662;2023-05-13T12:22:49;14.05;;;3.97;;
56911;SDS011;42800;53.928;27.662;2023-05-13T12:28:04;12.55;;;2.53;;
56911;SDS011;42800;53.928;27.662;2023-05-13T12:30:32;6.28;;;2.80;;
56911;SDS011;42800;53.928;27.662;2023-05-13T12:32:58;3.25;;;2.40;;
56911;SDS011;42800;53.928;27.662;2023-05-13T12:35:24;5.75;;;2.30;;
56911;SDS011;42800;53.928;27.662;2023-05-13T12:37:57;5.95;;;2.50;;
56911;SDS011;42800;53.928;27.662;2023-05-13T12:40:25;11.88;;;2.60;;
56911;SDS011;42800;53.928;27.662;2023-05-13T12:42:54;4.93;;;2.90;;
56911;SDS011;42800;53.928;27.662;2023-05-13T12:45:21;5.35;;;2.40;;
56911;SDS011;42800;53.928;27.662;2023-05-13T12:47:47;6.55;;;2.58;;
56911;SDS011;42800;53.928;27.662;2023-05-13T12:50:14;3.55;;;1.98;;
56911;SDS011;42800;53.928;27.662;2023-05-13T12:52:40;7.72;;;2.90;;
56911;SDS011;42800;53.928;27.662;2023-05-13T12:55:08;9.98;;;3.50;;
56911;SDS011;42800;53.928;27.662;2023-05-13T12:57:34;6.93;;;2.90;;
56911;SDS011;42800;53.928;27.662;2023-05-13T13:00:00;8.93;;;2.42;;
56911;SDS011;42800;53.928;27.662;2023-05-13T13:02:26;7.93;;;3.05;;
56911;SDS011;42800;53.928;27.662;2023-05-13T13:04:52;8.32;;;3.10;;
56911;SDS011;42800;53.928;27.662;2023-05-13T13:07:18;5.00;;;2.53;;
56911;SDS011;42800;53.928;27.662;2023-05-13T13:09:44;5.78;;;3.17;;
56911;SDS011;42800;53.928;27.662;2023-05-13T13:12:10;6.57;;;3.33;;
56911;SDS011;42800;53.928;27.662;2023-05-13T13:14:36;4.15;;;2.35;;
56911;SDS011;42800;53.928;27.662;2023-05-13T13:17:02;6.00;;;2.50;;
56911;SDS011;42800;53.928;27.662;2023-05-13T13:19:28;5.32;;;2.53;;
56911;SDS011;42800;53.928;27.662;2023-05-13T13:21:54;5.45;;;2.45;;
56911;SDS011;42800;53.928;27.662;2023-05-13T13:24:20;3.90;;;2.45;;
56911;SDS011;42800;53.928;27.662;2023-05-13T13:26:46;15.48;;;2.63;;
56911;SDS011;42800;53.928;27.662;2023-05-13T13:29:14;4.28;;;2.47;;
56911;SDS011;42800;53.928;27.662;2023-05-13T13:31:40;5.97;;;3.08;;
56911;SDS011;42800;53.928;27.662;2023-05-13T13:34:06;11.80;;;3.10;;
56911;SDS011;42800;53.928;27.662;2023-05-13T13:36:34;5.30;;;2.70;;
56911;SDS011;42800;53.928;27.662;2023-05-13T13:39:00;5.68;;;2.78;;
56911;SDS011;42800;53.928;27.662;2023-05-13T13:41:26;6.10;;;3.00;;
56911;SDS011;42800;53.928;27.662;2023-05-13T13:43:52;4.13;;;2.70;;
56911;SDS011;42800;53.928;27.662;2023-05-13T13:46:18;6.80;;;4.35;;
56911;SDS011;42800;53.928;27.662;2023-05-13T13:48:45;3.63;;;2.83;;
56911;SDS011;42800;53.928;27.662;2023-05-13T13:51:11;7.43;;;3.17;;
56911;SDS011;42800;53.928;27.662;2023-05-13T13:53:36;6.63;;;3.83;;
56911;SDS011;42800;53.928;27.662;2023-05-13T13:56:02;9.60;;;2.40;;
56911;SDS011;42800;53.928;27.662;2023-05-13T13:58:28;9.23;;;2.50;;
56911;SDS011;42800;53.928;27.662;2023-05-13T14:00:54;3.08;;;2.70;;
56911;SDS011;42800;53.928;27.662;2023-05-13T14:03:21;3.70;;;2.30;;
56911;SDS011;42800;53.928;27.662;2023-05-13T14:05:47;32.72;;;3.17;;
56911;SDS011;42800;53.928;27.662;2023-05-13T14:08:13;10.38;;;2.50;;
56911;SDS011;42800;53.928;27.662;2023-05-13T14:10:39;3.75;;;2.55;;
56911;SDS011;42800;53.928;27.662;2023-05-13T14:13:05;7.10;;;2.45;;
56911;SDS011;42800;53.928;27.662;2023-05-13T14:15:30;4.97;;;3.30;;
56911;SDS011;42800;53.928;27.662;2023-05-13T14:17:56;4.70;;;3.40;;
56911;SDS011;42800;53.928;27.662;2023-05-13T14:20:23;6.55;;;3.15;;
56911;SDS011;42800;53.928;27.662;2023-05-13T14:22:49;14.02;;;2.70;;
56911;SDS011;42800;53.928;27.662;2023-05-13T14:25:15;4.38;;;2.72;;
56911;SDS011;42800;53.928;27.662;2023-05-13T14:27:41;3.50;;;2.50;;
56911;SDS011;42800;53.928;27.662;2023-05-13T14:30:07;6.07;;;2.83;;
56911;SDS011;42800;53.928;27.662;2023-05-13T14:32:33;7.78;;;3.17;;
56911;SDS011;42800;53.928;27.662;2023-05-13T14:34:59;10.48;;;3.65;;
56911;SDS011;42800;53.928;27.662;2023-05-13T14:37:26;8.55;;;3.13;;
56911;SDS011;42800;53.928;27.662;2023-05-13T14:39:52;6.20;;;3.00;;